createdAt,value
2022-07-31T00:00:22.514Z,16.78
2022-07-31T00:02:49.995Z,16.79
2022-07-31T00:05:17.488Z,16.81
2022-07-31T00:07:44.973Z,16.52
2022-07-31T00:10:12.456Z,16.53
2022-07-31T00:12:41.490Z,16.73
2022-07-31T00:15:10.948Z,16.93
2022-07-31T00:17:38.761Z,16.80
2022-07-31T00:20:07.773Z,16.97
2022-07-31T00:22:35.459Z,17.00
2022-07-31T00:25:02.951Z,16.99
2022-07-31T00:27:30.422Z,16.91
2022-07-31T00:29:59.215Z,16.76
2022-07-31T00:32:27.091Z,16.62
2022-07-31T00:34:54.623Z,16.62
2022-07-31T00:37:22.128Z,16.83
2022-07-31T00:39:50.373Z,16.84
2022-07-31T00:42:18.834Z,16.68
2022-07-31T00:44:47.775Z,16.79
2022-07-31T00:47:18.081Z,16.94
2022-07-31T00:49:51.804Z,16.93
2022-07-31T00:52:19.333Z,16.93
2022-07-31T00:54:46.954Z,16.89
2022-07-31T00:57:15.224Z,16.87
2022-07-31T00:59:43.645Z,16.84
2022-07-31T01:02:11.631Z,16.80
2022-07-31T01:04:41.814Z,16.74
2022-07-31T01:07:12.020Z,16.61
2022-07-31T01:09:39.702Z,16.42
2022-07-31T01:12:14.725Z,16.44
2022-07-31T01:14:47.272Z,16.50
2022-07-31T01:17:15.239Z,16.48
2022-07-31T01:19:46.444Z,16.48
2022-07-31T01:22:35.784Z,16.52
2022-07-31T01:25:10.815Z,16.34
2022-07-31T01:27:53.218Z,16.24
2022-07-31T01:30:30.583Z,16.29
2022-07-31T01:33:03.288Z,16.24
2022-07-31T01:35:35.980Z,16.24
2022-07-31T01:38:09.580Z,16.01
2022-07-31T01:40:43.049Z,15.93
2022-07-31T01:43:15.683Z,16.04
2022-07-31T01:45:46.124Z,16.14
2022-07-31T01:48:16.200Z,16.12
2022-07-31T01:50:47.287Z,16.06
2022-07-31T01:53:18.665Z,16.06
2022-07-31T01:56:01.888Z,16.04
2022-07-31T01:58:36.206Z,16.02
2022-07-31T02:01:06.443Z,16.04
2022-07-31T02:03:43.527Z,16.06
2022-07-31T02:06:14.652Z,16.04
2022-07-31T02:08:44.806Z,15.92
2022-07-31T02:11:13.992Z,15.86
2022-07-31T02:13:41.918Z,15.88
2022-07-31T02:16:10.900Z,15.86
2022-07-31T02:18:38.813Z,15.84
2022-07-31T02:21:06.457Z,15.76
2022-07-31T02:23:34.491Z,15.57
2022-07-31T02:26:04.119Z,15.59
2022-07-31T02:28:33.176Z,15.63
2022-07-31T02:31:02.261Z,15.70
2022-07-31T02:33:32.186Z,15.73
2022-07-31T02:36:01.455Z,15.61
2022-07-31T02:38:29.394Z,15.59
2022-07-31T02:41:00.058Z,15.56
2022-07-31T02:43:29.458Z,15.55
2022-07-31T02:45:58.277Z,15.47
2022-07-31T02:48:26.462Z,15.44
2022-07-31T02:50:55.859Z,15.52
2022-07-31T02:53:23.738Z,15.55
2022-07-31T02:55:52.370Z,15.56
2022-07-31T02:58:20.017Z,15.61
2022-07-31T03:00:47.628Z,15.57
2022-07-31T03:03:15.215Z,15.52
2022-07-31T03:05:42.694Z,15.48
2022-07-31T03:08:11.492Z,15.44
2022-07-31T03:10:38.956Z,15.49
2022-07-31T03:13:07.999Z,15.41
2022-07-31T03:15:37.228Z,15.41
2022-07-31T03:18:08.386Z,15.36
2022-07-31T03:20:40.611Z,15.41
2022-07-31T03:23:08.324Z,15.39
2022-07-31T03:25:37.363Z,15.36
2022-07-31T03:28:05.134Z,15.26
2022-07-31T03:30:32.599Z,15.18
2022-07-31T03:33:03.357Z,15.11
2022-07-31T03:35:31.717Z,15.09
2022-07-31T03:37:59.188Z,15.05
2022-07-31T03:40:26.923Z,15.06
2022-07-31T03:42:57.326Z,15.02
2022-07-31T03:45:26.562Z,15.00
2022-07-31T03:47:54.822Z,15.05
2022-07-31T03:50:22.625Z,15.12
2022-07-31T03:52:50.774Z,15.12
2022-07-31T03:55:18.355Z,15.13
2022-07-31T03:57:47.543Z,15.18
2022-07-31T04:00:18.021Z,15.22
2022-07-31T04:02:46.610Z,15.24
2022-07-31T04:05:14.243Z,15.40
2022-07-31T04:07:41.712Z,15.64
2022-07-31T04:10:10.055Z,16.07
2022-07-31T04:12:37.756Z,16.44
2022-07-31T04:15:06.127Z,16.93
2022-07-31T04:17:35.048Z,17.47
2022-07-31T04:20:02.586Z,18.05
2022-07-31T04:22:33.231Z,18.54
2022-07-31T04:25:00.705Z,19.18
2022-07-31T04:27:28.339Z,19.90
2022-07-31T04:29:57.051Z,20.69
2022-07-31T04:32:25.491Z,21.29
2022-07-31T04:34:54.764Z,21.56
2022-07-31T04:37:22.365Z,21.74
2022-07-31T04:39:49.972Z,22.22
2022-07-31T04:42:17.520Z,22.81
2022-07-31T04:44:45.616Z,23.54
2022-07-31T04:47:14.198Z,24.36
2022-07-31T04:49:41.736Z,25.04
2022-07-31T04:52:10.709Z,25.20
2022-07-31T04:54:39.272Z,24.99
2022-07-31T04:57:06.780Z,24.93
2022-07-31T04:59:57.857Z,24.84
2022-07-31T05:02:21.910Z,24.55
2022-07-31T05:04:53.989Z,24.54
2022-07-31T05:07:29.061Z,25.24
2022-07-31T05:09:56.996Z,26.00
2022-07-31T05:12:24.550Z,26.24
2022-07-31T05:14:52.044Z,26.70
2022-07-31T05:17:19.530Z,28.03
2022-07-31T05:19:47.052Z,29.42
2022-07-31T05:22:14.547Z,29.90
2022-07-31T05:24:43.985Z,29.41
2022-07-31T05:27:11.583Z,28.35
2022-07-31T05:29:39.100Z,27.31
2022-07-31T05:32:07.251Z,26.57
2022-07-31T05:34:34.826Z,26.02
2022-07-31T05:37:03.287Z,25.70
2022-07-31T05:39:31.333Z,25.56
2022-07-31T05:42:00.220Z,25.54
2022-07-31T05:44:27.815Z,25.44
2022-07-31T05:49:22.262Z,25.24
2022-07-31T05:51:54.012Z,25.39
2022-07-31T05:54:21.900Z,25.37
2022-07-31T05:56:49.397Z,25.29
2022-07-31T05:59:18.579Z,25.13
2022-07-31T06:01:46.466Z,25.09
2022-07-31T06:04:14.052Z,25.33
2022-07-31T06:06:41.599Z,25.68
2022-07-31T06:09:09.152Z,26.12
2022-07-31T06:11:36.775Z,26.53
2022-07-31T06:14:04.396Z,26.72
2022-07-31T06:16:33.278Z,26.57
2022-07-31T06:19:00.780Z,25.66
2022-07-31T06:21:30.829Z,24.61
2022-07-31T06:23:58.520Z,24.05
2022-07-31T06:26:26.787Z,24.05
2022-07-31T06:28:55.352Z,24.38
2022-07-31T06:31:23.778Z,24.32
2022-07-31T06:33:52.905Z,24.62
2022-07-31T06:36:20.511Z,25.17
2022-07-31T06:38:48.107Z,25.55
2022-07-31T06:41:36.419Z,25.92
2022-07-31T06:44:04.890Z,26.04
2022-07-31T06:46:32.392Z,26.08
2022-07-31T06:49:03.538Z,26.21
2022-07-31T06:51:34.585Z,26.39
2022-07-31T06:54:04.021Z,26.49
2022-07-31T06:56:31.974Z,26.44
2022-07-31T06:58:59.859Z,26.04
2022-07-31T07:01:27.450Z,26.18
2022-07-31T07:03:55.108Z,26.13
2022-07-31T07:06:24.126Z,26.15
2022-07-31T07:08:51.660Z,26.36
2022-07-31T07:11:20.373Z,26.65
2022-07-31T07:13:47.907Z,26.88
2022-07-31T07:16:16.000Z,27.02
2022-07-31T07:18:43.948Z,27.51
2022-07-31T07:21:12.246Z,28.01
2022-07-31T07:23:41.148Z,28.58
2022-07-31T07:26:08.871Z,29.41
2022-07-31T07:28:37.022Z,30.69
2022-07-31T07:31:05.022Z,31.56
2022-07-31T07:33:39.917Z,32.42
2022-07-31T07:36:23.839Z,32.57
2022-07-31T07:38:55.138Z,32.41
2022-07-31T07:41:23.474Z,32.56
2022-07-31T07:43:52.412Z,32.64
2022-07-31T07:46:20.908Z,32.61
2022-07-31T07:48:49.137Z,33.02
2022-07-31T07:51:16.726Z,33.50
2022-07-31T07:53:44.389Z,32.97
2022-07-31T07:56:13.238Z,32.90
2022-07-31T07:58:40.763Z,32.96
2022-07-31T08:01:08.448Z,33.84
2022-07-31T08:03:49.140Z,33.73
2022-07-31T08:06:18.119Z,32.26
2022-07-31T08:08:45.652Z,33.61
2022-07-31T08:11:17.140Z,36.28
2022-07-31T08:13:50.240Z,38.37
2022-07-31T08:16:19.048Z,37.01
2022-07-31T08:18:46.669Z,36.01
2022-07-31T08:21:14.175Z,34.86
2022-07-31T08:23:42.166Z,36.14
2022-07-31T08:26:09.779Z,37.64
2022-07-31T08:28:38.629Z,37.73
2022-07-31T08:31:06.295Z,38.81
2022-07-31T08:33:33.915Z,39.20
2022-07-31T08:36:01.881Z,39.84
2022-07-31T08:38:29.879Z,38.83
2022-07-31T08:40:57.486Z,37.18
2022-07-31T08:44:03.097Z,37.70
2022-07-31T08:46:14.370Z,38.41
2022-07-31T08:48:44.495Z,39.45
2022-07-31T08:51:13.790Z,38.42
2022-07-31T08:53:43.529Z,34.62
2022-07-31T08:56:11.853Z,33.83
2022-07-31T08:58:40.155Z,32.20
2022-07-31T09:01:08.968Z,32.27
2022-07-31T09:03:38.533Z,30.14
2022-07-31T09:06:07.119Z,29.33
2022-07-31T09:08:34.746Z,30.29
2022-07-31T09:11:03.411Z,32.27
2022-07-31T09:13:34.724Z,33.49
2022-07-31T09:16:02.770Z,32.58
2022-07-31T09:18:31.036Z,31.67
2022-07-31T09:21:02.284Z,31.89
2022-07-31T09:23:30.533Z,28.82
2022-07-31T09:26:00.530Z,28.01
2022-07-31T09:28:35.683Z,26.81
2022-07-31T09:31:04.801Z,26.86
2022-07-31T09:33:32.840Z,26.74
2022-07-31T09:36:01.882Z,26.31
2022-07-31T09:38:34.094Z,27.70
2022-07-31T09:41:55.829Z,28.33
2022-07-31T09:44:02.692Z,29.39
2022-07-31T09:46:42.100Z,29.43
2022-07-31T09:49:09.760Z,28.49
2022-07-31T09:51:42.992Z,28.02
2022-07-31T09:54:22.169Z,30.07
2022-07-31T09:56:50.227Z,29.52
2022-07-31T09:59:18.231Z,30.01
2022-07-31T10:01:48.701Z,29.62
2022-07-31T10:04:18.154Z,31.00
2022-07-31T10:06:49.603Z,30.85
2022-07-31T10:09:19.630Z,29.15
2022-07-31T10:11:48.971Z,28.33
2022-07-31T10:14:21.939Z,29.12
2022-07-31T10:16:52.636Z,27.03
2022-07-31T10:19:22.013Z,28.52
2022-07-31T10:21:57.442Z,30.47
2022-07-31T10:24:28.606Z,30.81
2022-07-31T10:27:00.811Z,31.17
2022-07-31T10:29:32.639Z,31.76
2022-07-31T10:32:01.265Z,29.57
2022-07-31T10:34:29.534Z,28.87
2022-07-31T10:37:08.234Z,27.76
2022-07-31T10:39:46.546Z,28.58
2022-07-31T10:42:18.336Z,28.79
2022-07-31T10:44:51.796Z,29.87
2022-07-31T10:47:19.835Z,30.20
2022-07-31T10:49:49.664Z,29.03
2022-07-31T10:52:29.919Z,30.20
2022-07-31T10:54:58.261Z,29.09
2022-07-31T10:57:27.144Z,30.40
2022-07-31T10:59:54.984Z,30.77
2022-07-31T11:02:30.525Z,30.97
2022-07-31T11:05:14.724Z,29.66
2022-07-31T11:07:45.525Z,31.31
2022-07-31T11:10:16.446Z,29.29
2022-07-31T11:12:44.318Z,30.14
2022-07-31T11:15:23.006Z,29.67
2022-07-31T11:18:23.627Z,29.02
2022-07-31T11:20:39.555Z,29.52
2022-07-31T11:23:10.045Z,30.70
2022-07-31T11:25:38.942Z,31.21
2022-07-31T11:28:14.819Z,29.97
2022-07-31T11:30:49.920Z,28.99
2022-07-31T11:33:17.548Z,29.25
2022-07-31T11:35:45.069Z,30.62
2022-07-31T11:38:13.924Z,30.07
2022-07-31T11:40:50.050Z,30.08
2022-07-31T11:43:25.987Z,29.66
2022-07-31T11:45:55.052Z,30.03
2022-07-31T11:48:27.814Z,29.07
2022-07-31T11:50:55.589Z,28.99
2022-07-31T11:53:24.420Z,29.35
2022-07-31T11:55:54.657Z,30.10
2022-07-31T11:58:23.803Z,30.09
2022-07-31T12:00:52.947Z,28.86
2022-07-31T12:03:22.467Z,29.83
2022-07-31T12:05:52.201Z,30.78
2022-07-31T12:08:20.742Z,30.26
2022-07-31T12:10:50.711Z,28.98
2022-07-31T12:13:19.561Z,30.02
2022-07-31T12:15:58.081Z,28.21
2022-07-31T12:18:27.761Z,29.29
2022-07-31T12:20:57.147Z,28.81
2022-07-31T12:23:41.048Z,29.45
2022-07-31T12:26:12.759Z,28.84
2022-07-31T12:28:40.561Z,28.17
2022-07-31T12:31:08.210Z,28.73
2022-07-31T12:33:42.856Z,29.34
2022-07-31T12:36:14.743Z,31.15
2022-07-31T12:38:47.713Z,32.39
2022-07-31T12:41:17.885Z,31.51
2022-07-31T12:43:51.427Z,30.55
2022-07-31T12:46:21.115Z,30.63
2022-07-31T12:48:48.674Z,30.58
2022-07-31T12:51:17.660Z,29.08
2022-07-31T12:53:45.232Z,28.73
2022-07-31T12:56:13.159Z,28.38
2022-07-31T12:58:41.982Z,29.35
2022-07-31T13:01:09.529Z,28.90
2022-07-31T13:03:45.249Z,29.50
2022-07-31T13:06:14.156Z,31.25
2022-07-31T13:08:43.674Z,29.77
2022-07-31T13:11:11.289Z,29.29
2022-07-31T13:13:38.792Z,29.35
2022-07-31T13:16:08.028Z,28.58
2022-07-31T13:18:35.720Z,28.88
2022-07-31T13:21:03.325Z,28.69
2022-07-31T13:23:30.968Z,29.78
2022-07-31T13:25:59.721Z,30.01
2022-07-31T13:28:27.294Z,29.01
2022-07-31T13:30:55.414Z,28.60
2022-07-31T13:33:24.351Z,29.71
2022-07-31T13:35:51.871Z,30.81
2022-07-31T13:38:19.380Z,31.25
2022-07-31T13:41:00.851Z,31.00
2022-07-31T13:43:28.369Z,29.61
2022-07-31T13:45:55.857Z,28.73
2022-07-31T13:48:24.724Z,28.19
2022-07-31T13:50:52.226Z,28.48
2022-07-31T13:53:19.758Z,28.71
2022-07-31T13:55:50.077Z,29.42
2022-07-31T13:58:17.885Z,30.34
2022-07-31T14:00:45.518Z,30.24
2022-07-31T14:03:13.105Z,28.27
2022-07-31T14:05:47.449Z,27.92
2022-07-31T14:08:33.516Z,28.04
2022-07-31T14:11:04.999Z,28.35
2022-07-31T14:13:42.746Z,28.79
2022-07-31T14:16:10.275Z,28.92
2022-07-31T14:18:37.755Z,29.45
2022-07-31T14:21:08.612Z,29.44
2022-07-31T14:23:40.467Z,28.64
2022-07-31T14:26:08.374Z,29.72
2022-07-31T14:28:36.396Z,30.10
2022-07-31T14:31:03.983Z,29.81
2022-07-31T14:33:31.511Z,29.14
2022-07-31T14:35:59.217Z,29.76
2022-07-31T14:38:28.096Z,29.19
2022-07-31T14:40:55.771Z,29.48
2022-07-31T14:43:23.275Z,29.46
2022-07-31T14:45:51.142Z,29.79
2022-07-31T14:48:19.652Z,29.05
2022-07-31T14:50:47.145Z,30.04
2022-07-31T14:53:14.644Z,30.31
2022-07-31T14:55:43.473Z,29.68
2022-07-31T14:58:10.983Z,28.33
2022-07-31T15:00:38.485Z,28.55
2022-07-31T15:03:06.114Z,28.39
2022-07-31T15:06:49.301Z,28.72
2022-07-31T15:08:21.087Z,28.14
2022-07-31T15:10:49.904Z,28.30
2022-07-31T15:13:17.411Z,28.47
2022-07-31T15:15:45.820Z,28.26
2022-07-31T15:18:13.318Z,27.61
2022-07-31T15:20:40.858Z,27.29
2022-07-31T15:23:08.365Z,27.38
2022-07-31T15:25:35.876Z,27.84
2022-07-31T15:28:05.124Z,27.81
2022-07-31T15:30:32.635Z,27.90
2022-07-31T15:33:00.175Z,28.18
2022-07-31T15:35:27.985Z,28.63
2022-07-31T15:37:55.528Z,29.00
2022-07-31T15:40:23.036Z,28.72
2022-07-31T15:42:50.647Z,28.93
2022-07-31T15:45:20.399Z,28.17
2022-07-31T15:47:48.830Z,27.43
2022-07-31T15:50:18.699Z,27.72
2022-07-31T15:52:46.194Z,28.35
2022-07-31T15:55:14.139Z,27.56
2022-07-31T15:57:42.123Z,27.26
2022-07-31T16:00:12.174Z,27.06
2022-07-31T16:02:42.567Z,27.14
2022-07-31T16:05:20.001Z,27.09
2022-07-31T16:08:31.379Z,27.02
2022-07-31T16:10:48.234Z,26.77
2022-07-31T16:13:18.720Z,27.09
2022-07-31T16:15:46.208Z,27.18
2022-07-31T16:18:18.195Z,26.89
2022-07-31T16:20:46.428Z,26.82
2022-07-31T16:23:13.914Z,26.90
2022-07-31T16:25:41.445Z,27.17
2022-07-31T16:28:08.954Z,26.94
2022-07-31T16:30:36.523Z,26.99
2022-07-31T16:33:04.252Z,27.24
2022-07-31T16:35:33.052Z,27.33
2022-07-31T16:38:00.538Z,27.70
2022-07-31T16:40:31.668Z,28.06
2022-07-31T16:43:01.915Z,28.51
2022-07-31T16:45:30.709Z,28.05
2022-07-31T16:47:58.738Z,27.35
2022-07-31T16:50:26.571Z,27.65
2022-07-31T16:52:55.635Z,27.85
2022-07-31T16:55:46.198Z,27.88
2022-07-31T16:58:12.289Z,27.88
2022-07-31T17:00:39.915Z,27.22
2022-07-31T17:03:31.020Z,27.33
2022-07-31T17:05:55.363Z,27.18
2022-07-31T17:08:24.291Z,27.16
2022-07-31T17:10:54.669Z,27.20
2022-07-31T17:13:22.765Z,27.22
2022-07-31T17:15:50.242Z,27.06
2022-07-31T17:18:17.706Z,26.96
2022-07-31T17:20:47.022Z,27.15
2022-07-31T17:23:14.726Z,27.06
2022-07-31T17:25:44.763Z,27.23
2022-07-31T17:28:15.384Z,27.44
2022-07-31T17:30:45.134Z,27.57
2022-07-31T17:33:12.863Z,27.63
2022-07-31T17:35:40.702Z,27.38
2022-07-31T17:38:08.246Z,27.48
2022-07-31T17:40:44.349Z,27.40
2022-07-31T17:43:13.449Z,27.32
2022-07-31T17:46:05.837Z,27.17
2022-07-31T17:48:28.820Z,27.29
2022-07-31T17:50:56.779Z,28.01
2022-07-31T17:53:24.263Z,27.91
2022-07-31T17:56:13.015Z,27.46
2022-07-31T17:58:43.234Z,27.53
2022-07-31T18:01:10.754Z,27.71
2022-07-31T18:03:38.236Z,27.93
2022-07-31T18:06:05.760Z,28.21
2022-07-31T18:08:33.480Z,27.97
2022-07-31T18:11:01.144Z,27.94
2022-07-31T18:13:28.627Z,28.18
2022-07-31T18:15:58.549Z,28.91
2022-07-31T18:18:26.014Z,29.58
2022-07-31T18:20:53.463Z,29.76
2022-07-31T18:23:22.927Z,29.93
2022-07-31T18:25:51.314Z,29.94
2022-07-31T18:28:18.783Z,29.91
2022-07-31T18:30:46.254Z,29.76
2022-07-31T18:33:17.213Z,29.80
2022-07-31T18:35:44.890Z,29.71
2022-07-31T18:38:12.652Z,29.51
2022-07-31T18:40:40.110Z,29.41
2022-07-31T18:43:07.706Z,29.32
2022-07-31T18:45:35.964Z,29.19
2022-07-31T18:48:09.158Z,28.91
2022-07-31T18:51:01.467Z,28.75
2022-07-31T18:53:25.855Z,28.62
2022-07-31T18:55:53.354Z,28.46
2022-07-31T18:58:20.848Z,28.33
2022-07-31T19:00:51.629Z,28.12
2022-07-31T19:03:22.108Z,27.94
2022-07-31T19:05:52.879Z,27.82
2022-07-31T19:08:20.872Z,27.71
2022-07-31T19:10:49.509Z,27.56
2022-07-31T19:13:19.285Z,27.39
2022-07-31T19:15:47.233Z,27.26
2022-07-31T19:18:15.260Z,27.15
2022-07-31T19:21:00.215Z,27.10
2022-07-31T19:23:34.853Z,27.03
2022-07-31T19:26:04.737Z,26.90
2022-07-31T19:28:32.481Z,26.81
2022-07-31T19:31:00.143Z,26.78
2022-07-31T19:33:27.840Z,26.70
2022-07-31T19:36:01.232Z,26.65
2022-07-31T19:38:29.685Z,26.61
2022-07-31T19:40:58.676Z,26.54
2022-07-31T19:43:26.606Z,26.51
2022-07-31T19:46:10.740Z,26.49
2022-07-31T19:48:40.525Z,26.43
2022-07-31T19:51:08.259Z,26.43
2022-07-31T19:53:35.872Z,26.36
2022-07-31T19:56:06.319Z,26.32
2022-07-31T19:58:34.761Z,26.32
2022-07-31T20:01:03.312Z,26.28
2022-07-31T20:03:31.009Z,26.24
2022-07-31T20:05:58.727Z,26.22
2022-07-31T20:08:26.246Z,26.16
2022-07-31T20:10:57.070Z,26.12
2022-07-31T20:13:25.956Z,26.08
2022-07-31T20:15:53.447Z,26.02
2022-07-31T20:18:27.181Z,25.88
2022-07-31T20:20:57.022Z,25.85
2022-07-31T20:23:24.878Z,25.87
2022-07-31T20:25:52.431Z,25.86
2022-07-31T20:28:19.939Z,25.80
2022-07-31T20:30:49.094Z,25.75
2022-07-31T20:33:28.107Z,25.81
2022-07-31T20:35:55.606Z,25.78
2022-07-31T20:38:24.322Z,25.73
2022-07-31T20:40:55.357Z,25.70
2022-07-31T20:43:24.523Z,25.69
2022-07-31T20:45:54.049Z,25.64
2022-07-31T20:48:24.079Z,25.61
2022-07-31T20:50:53.252Z,25.56
2022-07-31T20:53:22.013Z,25.44
2022-07-31T20:55:50.371Z,25.45
2022-07-31T20:58:18.564Z,25.35
2022-07-31T21:00:47.490Z,25.36
2022-07-31T21:03:17.255Z,25.33
2022-07-31T21:05:45.563Z,25.29
2022-07-31T21:08:13.194Z,25.27
2022-07-31T21:10:40.910Z,25.17
2022-07-31T21:13:08.522Z,25.19
2022-07-31T21:15:41.914Z,25.18
2022-07-31T21:18:12.325Z,25.13
2022-07-31T21:20:52.044Z,25.05
2022-07-31T21:23:22.556Z,24.95
2022-07-31T21:25:51.149Z,24.83
2022-07-31T21:28:19.359Z,24.66
2022-07-31T21:30:47.887Z,24.50
2022-07-31T21:33:16.284Z,24.46
2022-07-31T21:35:46.091Z,24.45
2022-07-31T21:38:15.107Z,24.35
2022-07-31T21:40:42.996Z,24.20
2022-07-31T21:43:11.783Z,24.08
2022-07-31T21:45:50.410Z,23.98
2022-07-31T21:48:24.965Z,23.83
2022-07-31T21:50:55.277Z,23.84
2022-07-31T21:53:23.322Z,23.73
2022-07-31T21:55:51.393Z,23.71
2022-07-31T21:58:18.981Z,23.73
2022-07-31T22:00:46.653Z,23.58
2022-07-31T22:03:14.246Z,23.43
2022-07-31T22:05:59.663Z,23.40
2022-07-31T22:08:28.509Z,23.07
2022-07-31T22:10:56.059Z,23.14
2022-07-31T22:13:23.575Z,23.15
2022-07-31T22:15:59.751Z,22.06
2022-07-31T22:18:28.752Z,22.74
2022-07-31T22:20:56.636Z,22.79
2022-07-31T22:23:24.881Z,22.87
2022-07-31T22:25:54.045Z,22.96
2022-07-31T22:28:23.189Z,23.07
2022-07-31T22:30:52.062Z,23.15
2022-07-31T22:33:20.453Z,23.13
2022-07-31T22:35:59.475Z,23.17
2022-07-31T22:38:29.547Z,23.10
2022-07-31T22:40:58.805Z,23.15
2022-07-31T22:44:09.888Z,23.16
2022-07-31T22:46:15.036Z,23.20
2022-07-31T22:48:42.706Z,23.16
2022-07-31T22:51:12.888Z,23.17
2022-07-31T22:53:42.868Z,23.20
2022-07-31T22:56:11.697Z,23.20
2022-07-31T22:58:39.200Z,23.23
2022-07-31T23:01:06.676Z,23.25
2022-07-31T23:03:34.206Z,23.16
2022-07-31T23:06:29.367Z,23.20
2022-07-31T23:08:51.943Z,23.25
2022-07-31T23:11:24.503Z,23.26
2022-07-31T23:13:52.233Z,23.30
2022-07-31T23:16:20.971Z,23.30
2022-07-31T23:18:48.583Z,23.35
2022-07-31T23:21:16.050Z,23.38
2022-07-31T23:23:49.093Z,23.35
2022-07-31T23:26:17.753Z,23.37
2022-07-31T23:28:47.360Z,23.35
2022-07-31T23:31:15.109Z,23.39
2022-07-31T23:33:42.927Z,23.38
2022-07-31T23:36:10.545Z,23.34
2022-07-31T23:38:38.362Z,23.38
2022-07-31T23:41:05.969Z,23.51
2022-07-31T23:43:32.519Z,23.74
2022-07-31T23:46:01.446Z,23.83
2022-07-31T23:48:29.212Z,23.92
2022-07-31T23:50:57.688Z,23.99
2022-07-31T23:53:25.285Z,23.97
2022-07-31T23:55:52.803Z,23.98
2022-07-31T23:58:20.436Z,23.95
